Time;durP1;ratioP1;P1;durP2;ratioP2;P2;SDS_P1;SDS_P2;PMS_P1;PMS_P2;Temp;Humidity;BMP_temperature;BMP_pressure;BME280_temperature;BME280_humidity;BME280_pressure;Samples;Min_cycle;Max_cycle;Signal;HPM_P1;HPM_P2
2022/04/24 00:02:18;;;;;;;9.38;7.10;;;;;;;;;;5040667;28;20059;-64
2022/04/24 00:04:44;;;;;;;7.72;6.90;;;;;;;;;;5027195;28;20510;-64
2022/04/24 00:07:10;;;;;;;8.45;6.00;;;;;;;;;;5027851;28;20045;-63
2022/04/24 00:09:37;;;;;;;8.88;6.85;;;;;;;;;;5025462;28;20057;-64
2022/04/24 00:12:04;;;;;;;6.75;6.05;;;;;;;;;;5026450;28;20080;-63
2022/04/24 00:14:30;;;;;;;7.43;6.25;;;;;;;;;;5027218;28;20033;-64
2022/04/24 00:16:56;;;;;;;7.53;6.82;;;;;;;;;;5058160;28;20089;-65
2022/04/24 00:19:24;;;;;;;7.90;6.78;;;;;;;;;;5027234;28;20064;-63
2022/04/24 00:21:50;;;;;;;7.75;7.10;;;;;;;;;;5054904;28;20780;-65
2022/04/24 00:24:16;;;;;;;9.30;7.78;;;;;;;;;;5028197;28;20558;-64
2022/04/24 00:26:42;;;;;;;8.50;7.70;;;;;;;;;;5026738;28;20261;-64
2022/04/24 00:29:08;;;;;;;7.45;6.80;;;;;;;;;;5026990;28;20057;-63
2022/04/24 00:31:35;;;;;;;7.80;7.10;;;;;;;;;;5027902;28;20498;-63
2022/04/24 00:34:01;;;;;;;8.38;7.03;;;;;;;;;;5026761;28;20072;-63
2022/04/24 00:36:28;;;;;;;7.78;6.93;;;;;;;;;;5026679;28;20075;-63
2022/04/24 00:38:54;;;;;;;7.50;6.80;;;;;;;;;;5028019;28;20045;-64
2022/04/24 00:41:20;;;;;;;8.65;7.72;;;;;;;;;;5031884;28;20053;-63
2022/04/24 00:43:53;;;;;;;7.72;7.00;;;;;;;;;;5038774;28;20099;-63
2022/04/24 00:46:39;;;;;;;9.43;8.00;;;;;;;;;;5028045;28;20045;-64
2022/04/24 00:49:05;;;;;;;7.10;6.38;;;;;;;;;;5027840;28;20455;-64
2022/04/24 00:51:31;;;;;;;7.03;6.32;;;;;;;;;;5026766;28;20038;-63
2022/04/24 00:53:57;;;;;;;8.23;7.43;;;;;;;;;;5027719;28;20199;-63
2022/04/24 00:56:30;;;;;;;9.20;7.60;;;;;;;;;;5026193;28;20073;-63
2022/04/24 00:58:56;;;;;;;9.18;7.30;;;;;;;;;;5027647;28;20073;-63
2022/04/24 01:01:22;;;;;;;8.38;7.18;;;;;;;;;;5028014;28;20045;-64
2022/04/24 01:03:48;;;;;;;8.68;7.70;;;;;;;;;;5026116;28;20140;-63
2022/04/24 01:06:15;;;;;;;8.07;7.28;;;;;;;;;;5027821;28;20114;-64
2022/04/24 01:08:41;;;;;;;8.43;7.63;;;;;;;;;;5027884;28;20406;-64
2022/04/24 01:11:07;;;;;;;9.35;7.95;;;;;;;;;;5026407;28;20060;-63
2022/04/24 01:13:33;;;;;;;7.95;7.15;;;;;;;;;;5026293;28;20041;-63
2022/04/24 01:15:59;;;;;;;9.10;7.80;;;;;;;;;;5026463;28;20119;-63
2022/04/24 01:18:29;;;;;;;9.05;7.45;;;;;;;;;;5026226;28;20041;-62
2022/04/24 01:20:55;;;;;;;7.28;6.57;;;;;;;;;;5043619;28;20452;-64
2022/04/24 01:23:21;;;;;;;8.02;7.20;;;;;;;;;;5026292;28;20053;-64
2022/04/24 01:25:47;;;;;;;7.68;6.88;;;;;;;;;;5026012;28;20084;-64
2022/04/24 01:28:13;;;;;;;8.38;7.00;;;;;;;;;;5032494;28;20053;-63
2022/04/24 01:30:39;;;;;;;8.23;6.53;;;;;;;;;;5026199;28;20098;-63
2022/04/24 01:33:06;;;;;;;8.63;7.55;;;;;;;;;;5026331;28;20514;-63
2022/04/24 01:35:32;;;;;;;7.22;5.80;;;;;;;;;;5017991;28;20096;-63
2022/04/24 01:37:58;;;;;;;8.10;6.90;;;;;;;;;;5045132;28;20045;-64
2022/04/24 01:40:25;;;;;;;8.55;5.47;;;;;;;;;;5010924;28;20044;-63
2022/04/24 01:42:52;;;;;;;7.95;6.55;;;;;;;;;;5026855;28;20238;-63
2022/04/24 01:45:18;;;;;;;8.60;7.30;;;;;;;;;;5026847;28;20049;-63
2022/04/24 01:47:44;;;;;;;6.80;6.20;;;;;;;;;;5028266;28;20041;-63
2022/04/24 01:50:10;;;;;;;7.35;5.78;;;;;;;;;;5030241;28;20040;-61
2022/04/24 01:52:36;;;;;;;9.23;7.72;;;;;;;;;;5062592;28;20058;-62
2022/04/24 01:55:02;;;;;;;6.30;5.57;;;;;;;;;;5039511;28;20053;-61
2022/04/24 01:57:28;;;;;;;8.32;6.20;;;;;;;;;;5046844;28;20042;-62
2022/04/24 01:59:54;;;;;;;8.77;6.80;;;;;;;;;;5023611;28;20116;-62
2022/04/24 02:02:20;;;;;;;7.47;6.65;;;;;;;;;;5032196;28;20052;-62
2022/04/24 02:04:46;;;;;;;8.25;7.20;;;;;;;;;;5030399;28;20045;-64
2022/04/24 02:07:13;;;;;;;7.57;6.78;;;;;;;;;;5032264;28;20049;-62
2022/04/24 02:09:40;;;;;;;9.68;8.68;;;;;;;;;;5030078;28;20125;-62
2022/04/24 02:12:06;;;;;;;10.15;7.32;;;;;;;;;;5032081;28;20087;-63
2022/04/24 02:14:32;;;;;;;7.20;6.50;;;;;;;;;;5030017;28;20084;-63
2022/04/24 02:16:58;;;;;;;7.03;6.32;;;;;;;;;;5013931;28;20045;-63
2022/04/24 02:19:24;;;;;;;7.88;5.88;;;;;;;;;;5030297;28;20045;-63
2022/04/24 02:21:51;;;;;;;8.13;6.53;;;;;;;;;;5013710;28;20092;-62
2022/04/24 02:24:17;;;;;;;5.15;4.38;;;;;;;;;;5031820;28;20045;-63
2022/04/24 02:26:43;;;;;;;8.70;7.45;;;;;;;;;;5030230;28;20048;-63
2022/04/24 02:29:10;;;;;;;7.80;6.45;;;;;;;;;;5031389;28;20160;-62
2022/04/24 02:31:36;;;;;;;8.02;6.55;;;;;;;;;;5030244;28;20065;-63
2022/04/24 02:34:02;;;;;;;7.68;6.10;;;;;;;;;;5030057;28;20037;-62
2022/04/24 02:36:29;;;;;;;7.85;4.80;;;;;;;;;;5031611;28;20052;-63
2022/04/24 02:38:55;;;;;;;5.82;3.60;;;;;;;;;;5014065;28;20495;-63
2022/04/24 02:41:21;;;;;;;8.85;6.95;;;;;;;;;;5029995;28;20581;-63
2022/04/24 02:43:47;;;;;;;6.68;4.78;;;;;;;;;;5013682;28;20151;-64
2022/04/24 02:46:13;;;;;;;7.55;5.25;;;;;;;;;;5030228;28;20415;-63
2022/04/24 02:48:39;;;;;;;5.25;4.72;;;;;;;;;;5030323;28;20053;-63
2022/04/24 02:51:05;;;;;;;7.68;6.75;;;;;;;;;;5030958;28;20519;-62
2022/04/24 02:53:31;;;;;;;10.05;6.75;;;;;;;;;;5030014;28;20049;-63
2022/04/24 02:55:57;;;;;;;9.57;7.78;;;;;;;;;;5029997;28;20036;-63
2022/04/24 02:58:23;;;;;;;7.20;5.78;;;;;;;;;;5031120;28;20041;-62
2022/04/24 03:00:50;;;;;;;5.78;4.95;;;;;;;;;;5029589;28;20102;-63
2022/04/24 03:03:19;;;;;;;7.28;5.05;;;;;;;;;;5030278;28;20045;-62
2022/04/24 03:05:46;;;;;;;6.80;5.85;;;;;;;;;;5029284;28;20069;-63
2022/04/24 03:08:13;;;;;;;8.23;5.32;;;;;;;;;;5029666;28;20029;-62
2022/04/24 03:10:39;;;;;;;6.35;5.15;;;;;;;;;;5030013;28;20500;-62
2022/04/24 03:13:05;;;;;;;8.88;8.00;;;;;;;;;;5029586;28;20050;-63
2022/04/24 03:15:31;;;;;;;7.43;6.63;;;;;;;;;;5061953;28;20037;-64
2022/04/24 03:17:58;;;;;;;6.57;5.88;;;;;;;;;;5029908;28;20045;-63
2022/04/24 03:20:24;;;;;;;5.95;4.45;;;;;;;;;;5057623;28;20120;-63
2022/04/24 03:22:53;;;;;;;8.60;7.28;;;;;;;;;;5014784;28;20042;-63
2022/04/24 03:25:19;;;;;;;7.18;6.50;;;;;;;;;;5013274;28;20415;-62
2022/04/24 03:27:45;;;;;;;8.10;6.53;;;;;;;;;;5030247;28;20045;-62
2022/04/24 03:30:11;;;;;;;4.82;4.22;;;;;;;;;;5030567;28;20149;-63
2022/04/24 03:32:37;;;;;;;6.10;5.50;;;;;;;;;;5030605;28;20041;-64
2022/04/24 03:35:05;;;;;;;8.40;7.13;;;;;;;;;;5030912;28;20051;-62
2022/04/24 03:37:32;;;;;;;7.30;4.85;;;;;;;;;;5027467;28;20085;-62
2022/04/24 03:39:58;;;;;;;14.13;8.55;;;;;;;;;;5029034;28;20156;-63
2022/04/24 03:42:27;;;;;;;9.10;5.80;;;;;;;;;;5030056;28;20064;-63
2022/04/24 03:44:56;;;;;;;10.38;6.90;;;;;;;;;;5029093;28;20057;-64
2022/04/24 03:47:23;;;;;;;11.00;7.50;;;;;;;;;;5029108;28;20492;-64
2022/04/24 03:49:49;;;;;;;12.65;7.97;;;;;;;;;;5049069;28;20423;-64
2022/04/24 03:52:15;;;;;;;10.82;8.38;;;;;;;;;;5062202;28;20045;-64
2022/04/24 03:54:41;;;;;;;7.32;4.45;;;;;;;;;;5032266;28;20073;-63
2022/04/24 03:57:08;;;;;;;12.90;10.00;;;;;;;;;;5029687;28;20514;-63
2022/04/24 03:59:34;;;;;;;11.90;10.63;;;;;;;;;;5052656;28;20053;-62
2022/04/24 04:02:00;;;;;;;10.43;8.27;;;;;;;;;;5046798;28;20049;-62
2022/04/24 04:04:27;;;;;;;12.10;9.85;;;;;;;;;;5032230;28;20137;-61
2022/04/24 04:06:53;;;;;;;11.80;9.60;;;;;;;;;;4998062;28;20460;-62
2022/04/24 04:09:19;;;;;;;16.20;11.32;;;;;;;;;;5031152;28;20757;-61
2022/04/24 04:11:45;;;;;;;14.30;9.70;;;;;;;;;;5030410;28;20037;-62
2022/04/24 04:14:11;;;;;;;13.38;10.32;;;;;;;;;;5030456;28;20049;-62
2022/04/24 04:16:37;;;;;;;7.63;5.07;;;;;;;;;;5030070;28;20045;-61
2022/04/24 04:19:03;;;;;;;11.30;9.95;;;;;;;;;;5013806;28;20081;-62
2022/04/24 04:21:30;;;;;;;15.38;11.82;;;;;;;;;;5030487;28;20467;-61
2022/04/24 04:23:56;;;;;;;11.70;9.52;;;;;;;;;;5062933;28;20033;-63
2022/04/24 04:26:22;;;;;;;15.57;11.50;;;;;;;;;;5030411;28;20116;-61
2022/04/24 04:28:48;;;;;;;13.20;11.23;;;;;;;;;;5058709;28;20045;-62
2022/04/24 04:31:15;;;;;;;15.82;10.95;;;;;;;;;;5020064;28;20080;-63
2022/04/24 04:33:41;;;;;;;15.20;11.10;;;;;;;;;;5046330;28;20116;-62
2022/04/24 04:36:08;;;;;;;12.43;9.52;;;;;;;;;;5046430;28;20175;-61
2022/04/24 04:38:34;;;;;;;15.77;10.70;;;;;;;;;;5013752;28;20128;-61
2022/04/24 04:41:00;;;;;;;15.48;12.40;;;;;;;;;;5031474;28;20061;-61
2022/04/24 04:43:27;;;;;;;16.40;11.65;;;;;;;;;;5050018;28;20046;-63
2022/04/24 04:45:53;;;;;;;11.30;9.73;;;;;;;;;;5025234;28;20675;-63
2022/04/24 04:48:19;;;;;;;10.55;7.65;;;;;;;;;;5015356;28;20054;-63
2022/04/24 04:50:45;;;;;;;10.35;8.07;;;;;;;;;;5024821;28;20437;-63
2022/04/24 04:53:11;;;;;;;13.88;10.75;;;;;;;;;;5027133;28;20264;-63
2022/04/24 04:55:37;;;;;;;12.93;8.55;;;;;;;;;;5061293;28;20041;-61
2022/04/24 04:58:04;;;;;;;11.00;8.30;;;;;;;;;;5030983;28;20037;-61
2022/04/24 05:00:30;;;;;;;11.43;8.25;;;;;;;;;;5030157;28;20083;-62
2022/04/24 05:02:56;;;;;;;11.07;6.80;;;;;;;;;;5031479;28;20084;-62
2022/04/24 05:05:22;;;;;;;8.57;6.93;;;;;;;;;;5031125;28;20475;-62
2022/04/24 05:07:48;;;;;;;9.38;7.43;;;;;;;;;;5029557;28;20084;-62
2022/04/24 05:10:14;;;;;;;8.18;5.03;;;;;;;;;;5029962;28;20048;-62
2022/04/24 05:12:40;;;;;;;10.02;7.15;;;;;;;;;;5030673;28;20065;-60
2022/04/24 05:15:08;;;;;;;8.88;6.07;;;;;;;;;;5030782;28;20038;-62
2022/04/24 05:17:35;;;;;;;13.52;9.10;;;;;;;;;;5045558;28;20091;-62
2022/04/24 05:20:05;;;;;;;8.80;6.03;;;;;;;;;;5030815;28;20598;-62
2022/04/24 05:22:31;;;;;;;7.38;6.18;;;;;;;;;;5030732;28;20387;-63
2022/04/24 05:24:57;;;;;;;8.95;5.97;;;;;;;;;;5055750;28;20033;-63
2022/04/24 05:27:23;;;;;;;6.55;4.25;;;;;;;;;;5027739;28;20045;-63
2022/04/24 05:29:49;;;;;;;9.10;5.35;;;;;;;;;;5031407;28;20410;-63
2022/04/24 05:32:16;;;;;;;9.93;6.57;;;;;;;;;;5031534;28;20052;-63
2022/04/24 05:34:42;;;;;;;6.55;4.20;;;;;;;;;;5015131;28;20385;-63
2022/04/24 05:37:09;;;;;;;5.60;3.03;;;;;;;;;;5031354;28;20195;-62
2022/04/24 05:39:36;;;;;;;6.78;2.85;;;;;;;;;;5033549;28;20351;-62
2022/04/24 05:42:02;;;;;;;6.75;4.85;;;;;;;;;;5030669;28;20049;-63
2022/04/24 05:44:28;;;;;;;4.70;3.13;;;;;;;;;;5030671;28;20060;-62
2022/04/24 05:46:54;;;;;;;3.83;2.70;;;;;;;;;;5031472;28;20053;-63
2022/04/24 05:49:20;;;;;;;9.07;5.07;;;;;;;;;;5030621;28;20040;-63
2022/04/24 05:51:46;;;;;;;7.03;3.72;;;;;;;;;;5032569;28;20039;-63
2022/04/24 05:54:13;;;;;;;3.05;2.13;;;;;;;;;;5034657;28;20120;-63
2022/04/24 05:56:39;;;;;;;8.00;2.88;;;;;;;;;;5015646;28;20046;-62
2022/04/24 05:59:05;;;;;;;5.55;3.22;;;;;;;;;;5062601;28;20049;-62
2022/04/24 06:01:32;;;;;;;5.63;3.15;;;;;;;;;;5030801;28;20041;-62
2022/04/24 06:03:58;;;;;;;6.25;3.20;;;;;;;;;;5030487;28;20491;-63
2022/04/24 06:06:24;;;;;;;3.80;1.92;;;;;;;;;;5031168;28;20059;-63
2022/04/24 06:08:50;;;;;;;3.45;1.75;;;;;;;;;;5030497;28;20045;-63
2022/04/24 06:11:17;;;;;;;3.28;2.00;;;;;;;;;;5030449;28;20050;-63
2022/04/24 06:13:45;;;;;;;4.95;2.00;;;;;;;;;;5030391;28;20041;-64
2022/04/24 06:16:11;;;;;;;3.38;1.83;;;;;;;;;;5030588;28;20053;-62
2022/04/24 06:18:38;;;;;;;5.25;1.77;;;;;;;;;;5031570;28;20484;-64
2022/04/24 06:21:04;;;;;;;7.10;2.33;;;;;;;;;;5032346;28;20049;-64
2022/04/24 06:23:31;;;;;;;4.80;2.28;;;;;;;;;;5030076;28;20470;-64
2022/04/24 06:25:58;;;;;;;3.22;1.42;;;;;;;;;;5047813;28;20121;-64
2022/04/24 06:28:25;;;;;;;2.58;1.30;;;;;;;;;;5045199;28;20079;-62
2022/04/24 06:30:51;;;;;;;4.47;2.00;;;;;;;;;;5063573;28;20037;-65
2022/04/24 06:33:20;;;;;;;6.03;1.70;;;;;;;;;;5030438;28;20037;-64
2022/04/24 06:35:46;;;;;;;3.53;1.50;;;;;;;;;;5030527;28;20037;-64
2022/04/24 06:38:12;;;;;;;3.30;1.40;;;;;;;;;;5030273;28;20450;-64
2022/04/24 06:40:38;;;;;;;4.65;1.70;;;;;;;;;;5030552;28;20069;-64
2022/04/24 06:43:06;;;;;;;3.83;1.70;;;;;;;;;;5030669;28;20084;-63
2022/04/24 06:45:33;;;;;;;4.50;2.22;;;;;;;;;;5029714;28;20045;-64
2022/04/24 06:48:00;;;;;;;4.22;1.60;;;;;;;;;;5049942;28;20542;-64
2022/04/24 06:50:27;;;;;;;5.72;1.90;;;;;;;;;;4997410;28;20052;-63
2022/04/24 06:52:57;;;;;;;3.80;2.13;;;;;;;;;;5013423;28;20056;-64
2022/04/24 06:55:24;;;;;;;5.13;2.28;;;;;;;;;;5030058;28;20068;-63
2022/04/24 06:57:51;;;;;;;4.95;2.30;;;;;;;;;;5030682;28;20137;-63
2022/04/24 07:00:18;;;;;;;5.72;1.90;;;;;;;;;;5011418;28;20041;-64
2022/04/24 07:02:44;;;;;;;3.22;1.50;;;;;;;;;;5025981;28;20049;-64
2022/04/24 07:05:10;;;;;;;3.67;2.08;;;;;;;;;;5028115;28;20044;-63
2022/04/24 07:07:36;;;;;;;3.88;2.10;;;;;;;;;;5028148;28;20037;-63
2022/04/24 07:10:02;;;;;;;3.75;2.00;;;;;;;;;;5011123;28;20411;-63
2022/04/24 07:12:29;;;;;;;3.88;1.70;;;;;;;;;;5028414;28;20122;-62
2022/04/24 07:14:56;;;;;;;3.47;1.67;;;;;;;;;;5029753;28;20033;-60
2022/04/24 07:17:22;;;;;;;5.50;3.10;;;;;;;;;;5029990;28;20077;-64
2022/04/24 07:19:48;;;;;;;5.95;3.28;;;;;;;;;;5026878;28;20120;-64
2022/04/24 07:22:17;;;;;;;5.65;2.25;;;;;;;;;;5010391;28;20043;-63
2022/04/24 07:24:43;;;;;;;6.32;2.10;;;;;;;;;;5056971;28;20045;-61
2022/04/24 07:27:09;;;;;;;4.57;2.08;;;;;;;;;;5050215;28;20111;-63
2022/04/24 07:29:36;;;;;;;4.20;2.38;;;;;;;;;;5034922;28;20087;-63
2022/04/24 07:32:02;;;;;;;4.82;2.33;;;;;;;;;;5026984;28;20041;-63
2022/04/24 07:34:28;;;;;;;4.43;2.42;;;;;;;;;;5011435;28;20043;-63
2022/04/24 07:36:54;;;;;;;3.33;1.73;;;;;;;;;;5053470;28;20037;-64
2022/04/24 07:39:20;;;;;;;3.85;1.85;;;;;;;;;;5028829;28;20045;-63
2022/04/24 07:41:46;;;;;;;5.28;2.40;;;;;;;;;;5061641;28;20063;-63
2022/04/24 07:44:12;;;;;;;6.10;1.88;;;;;;;;;;5028601;28;20053;-64
2022/04/24 07:46:38;;;;;;;4.05;2.15;;;;;;;;;;5010312;28;20029;-64
2022/04/24 07:49:05;;;;;;;4.82;1.70;;;;;;;;;;5010530;28;20041;-65
2022/04/24 07:51:31;;;;;;;5.95;1.98;;;;;;;;;;5025920;28;20049;-64
2022/04/24 07:53:57;;;;;;;4.05;1.80;;;;;;;;;;5022370;28;20037;-64
2022/04/24 07:56:23;;;;;;;3.92;2.50;;;;;;;;;;5033859;28;20038;-66
2022/04/24 07:58:49;;;;;;;4.80;2.17;;;;;;;;;;5052803;28;20407;-64
2022/04/24 08:01:17;;;;;;;3.50;1.40;;;;;;;;;;5035007;28;20506;-64
2022/04/24 08:03:43;;;;;;;2.17;1.55;;;;;;;;;;5022590;28;20108;-63
2022/04/24 08:06:10;;;;;;;3.83;1.77;;;;;;;;;;5026690;28;20079;-64
2022/04/24 08:08:36;;;;;;;4.03;1.40;;;;;;;;;;5052703;28;20049;-63
2022/04/24 08:11:02;;;;;;;5.13;2.22;;;;;;;;;;5026514;28;20041;-63
2022/04/24 08:13:29;;;;;;;2.83;1.88;;;;;;;;;;5025779;28;20420;-63
2022/04/24 08:15:57;;;;;;;4.22;1.80;;;;;;;;;;5010198;28;20038;-63
2022/04/24 08:18:23;;;;;;;3.67;1.88;;;;;;;;;;5010424;28;20538;-64
2022/04/24 08:20:49;;;;;;;4.38;2.30;;;;;;;;;;5050767;28;20486;-62
2022/04/24 08:23:16;;;;;;;5.28;2.67;;;;;;;;;;5027034;28;20151;-63
2022/04/24 08:25:42;;;;;;;4.38;1.88;;;;;;;;;;5026475;28;20041;-62
2022/04/24 08:28:12;;;;;;;2.87;1.73;;;;;;;;;;5027893;28;20037;-63
2022/04/24 08:30:40;;;;;;;2.97;1.50;;;;;;;;;;5028055;28;20495;-61
2022/04/24 08:33:06;;;;;;;3.65;1.80;;;;;;;;;;5028959;28;20037;-62
2022/04/24 08:35:32;;;;;;;3.08;1.90;;;;;;;;;;5028304;28;20044;-61
2022/04/24 08:37:58;;;;;;;3.88;2.20;;;;;;;;;;5028734;28;20045;-62
2022/04/24 08:40:25;;;;;;;4.00;1.98;;;;;;;;;;5028818;28;20095;-61
2022/04/24 08:42:57;;;;;;;4.18;1.70;;;;;;;;;;5028516;28;20136;-63
2022/04/24 08:45:27;;;;;;;2.67;1.60;;;;;;;;;;5027059;28;20076;-63
2022/04/24 08:47:55;;;;;;;2.75;1.35;;;;;;;;;;5025425;28;20491;-62
2022/04/24 08:50:24;;;;;;;3.72;1.88;;;;;;;;;;5009346;28;20037;-62
2022/04/24 08:52:50;;;;;;;2.10;1.17;;;;;;;;;;5026039;28;20312;-66
2022/04/24 08:55:17;;;;;;;2.38;1.30;;;;;;;;;;5052154;28;20041;-63
2022/04/24 08:57:43;;;;;;;2.28;1.23;;;;;;;;;;5052924;28;20383;-64
2022/04/24 09:00:09;;;;;;;3.50;1.52;;;;;;;;;;5026520;28;20067;-63
2022/04/24 09:02:35;;;;;;;2.53;0.77;;;;;;;;;;5026208;28;20396;-63
2022/04/24 09:05:04;;;;;;;1.95;0.60;;;;;;;;;;5033257;28;20124;-64
2022/04/24 09:07:33;;;;;;;2.13;0.65;;;;;;;;;;5027688;28;20156;-64
2022/04/24 09:10:03;;;;;;;2.10;0.75;;;;;;;;;;5027683;28;20068;-63
2022/04/24 09:12:29;;;;;;;2.20;1.40;;;;;;;;;;5049605;28;20045;-65
2022/04/24 09:14:57;;;;;;;3.20;1.30;;;;;;;;;;5037835;28;20356;-65
2022/04/24 09:17:24;;;;;;;1.50;0.77;;;;;;;;;;5026823;28;20029;-65
2022/04/24 09:19:50;;;;;;;3.38;1.02;;;;;;;;;;5052064;28;20041;-65
2022/04/24 09:22:17;;;;;;;5.20;1.25;;;;;;;;;;5008606;28;20144;-64
2022/04/24 09:24:59;;;;;;;3.45;1.20;;;;;;;;;;5033333;28;20080;-65
2022/04/24 09:27:35;;;;;;;15.18;1.55;;;;;;;;;;5010102;28;20142;-64
2022/04/24 09:30:01;;;;;;;4.45;1.55;;;;;;;;;;5026109;28;20045;-64
2022/04/24 09:32:28;;;;;;;5.13;1.73;;;;;;;;;;5050731;28;20184;-62
2022/04/24 09:34:55;;;;;;;2.75;1.05;;;;;;;;;;5026293;28;20060;-63
2022/04/24 09:37:21;;;;;;;3.58;0.88;;;;;;;;;;5024913;28;20029;-63
2022/04/24 09:39:48;;;;;;;3.65;1.27;;;;;;;;;;5026051;28;20041;-62
2022/04/24 09:42:15;;;;;;;2.78;1.42;;;;;;;;;;5025924;28;20136;-63
2022/04/24 09:44:45;;;;;;;1.48;0.73;;;;;;;;;;5038514;28;20519;-63
2022/04/24 09:47:11;;;;;;;2.65;0.93;;;;;;;;;;5025867;28;20510;-64
2022/04/24 09:49:41;;;;;;;4.15;1.48;;;;;;;;;;5009161;28;20048;-63
2022/04/24 09:52:11;;;;;;;3.33;1.45;;;;;;;;;;5026777;28;20041;-63
2022/04/24 09:54:42;;;;;;;2.70;1.13;;;;;;;;;;5024926;28;20137;-63
2022/04/24 09:57:09;;;;;;;3.22;0.95;;;;;;;;;;5052912;28;20037;-64
2022/04/24 09:59:37;;;;;;;2.13;1.02;;;;;;;;;;5026804;28;20503;-62
2022/04/24 10:02:03;;;;;;;2.17;0.77;;;;;;;;;;5024663;28;20041;-63
2022/04/24 10:04:30;;;;;;;1.95;0.75;;;;;;;;;;5026243;28;20041;-63
2022/04/24 10:06:57;;;;;;;1.70;0.45;;;;;;;;;;5027178;28;20037;-63
2022/04/24 10:09:24;;;;;;;1.27;0.40;;;;;;;;;;5060127;28;20060;-64
2022/04/24 10:11:50;;;;;;;2.20;0.90;;;;;;;;;;5028107;28;20095;-62
2022/04/24 10:14:17;;;;;;;2.33;0.70;;;;;;;;;;5029384;28;20095;-63
2022/04/24 10:16:56;;;;;;;3.85;1.17;;;;;;;;;;5054868;28;20045;-63
2022/04/24 10:19:44;;;;;;;1.48;0.73;;;;;;;;;;5022192;28;20044;-63
2022/04/24 10:22:39;;;;;;;1.52;0.60;;;;;;;;;;5030046;28;20047;-63
2022/04/24 10:25:06;;;;;;;1.88;0.75;;;;;;;;;;5009755;28;20411;-63
2022/04/24 10:27:39;;;;;;;2.30;0.82;;;;;;;;;;5028820;28;20045;-64
2022/04/24 10:30:05;;;;;;;2.13;0.98;;;;;;;;;;5030944;28;20042;-63
2022/04/24 10:32:32;;;;;;;2.83;0.77;;;;;;;;;;5030139;28;20029;-62
2022/04/24 10:34:59;;;;;;;6.03;1.63;;;;;;;;;;5012882;28;20152;-62
2022/04/24 10:37:29;;;;;;;3.65;1.90;;;;;;;;;;5028533;28;20065;-63
2022/04/24 10:39:58;;;;;;;2.95;1.52;;;;;;;;;;5027775;28;20048;-63
2022/04/24 10:42:30;;;;;;;3.65;1.60;;;;;;;;;;5028203;28;20065;-63
2022/04/24 10:45:03;;;;;;;2.33;0.87;;;;;;;;;;5030350;28;20102;-63
2022/04/24 10:47:39;;;;;;;3.78;1.42;;;;;;;;;;5027547;28;20049;-63
2022/04/24 10:50:06;;;;;;;2.35;1.13;;;;;;;;;;5031284;28;20595;-64
2022/04/24 10:52:43;;;;;;;3.80;1.63;;;;;;;;;;5029627;28;20046;-64
2022/04/24 10:55:19;;;;;;;3.92;1.80;;;;;;;;;;5012545;28;20041;-62
2022/04/24 10:57:47;;;;;;;3.08;1.27;;;;;;;;;;5041794;28;20108;-63
2022/04/24 11:00:19;;;;;;;1.90;1.20;;;;;;;;;;5026264;28;20053;-64
2022/04/24 11:02:45;;;;;;;3.13;1.30;;;;;;;;;;5023158;28;20115;-62
2022/04/24 11:05:11;;;;;;;2.55;1.77;;;;;;;;;;5029260;28;20044;-63
2022/04/24 11:07:38;;;;;;;2.45;0.95;;;;;;;;;;5053106;28;20037;-63
2022/04/24 11:10:16;;;;;;;4.80;1.92;;;;;;;;;;5050958;28;20099;-63
2022/04/24 11:12:42;;;;;;;2.55;1.38;;;;;;;;;;5036294;28;20076;-63
2022/04/24 11:15:10;;;;;;;3.08;1.52;;;;;;;;;;4992377;28;20104;-64
2022/04/24 11:17:36;;;;;;;2.90;1.70;;;;;;;;;;5012697;28;20045;-64
2022/04/24 11:20:08;;;;;;;4.25;2.30;;;;;;;;;;5028010;28;20057;-63
2022/04/24 11:22:43;;;;;;;3.97;2.00;;;;;;;;;;5024651;28;20395;-64
2022/04/24 11:25:12;;;;;;;3.00;1.58;;;;;;;;;;5030295;28;20046;-62
2022/04/24 11:27:38;;;;;;;2.63;1.90;;;;;;;;;;5025753;28;20488;-64
2022/04/24 11:30:13;;;;;;;4.38;2.42;;;;;;;;;;5026572;28;20153;-62
2022/04/24 11:32:39;;;;;;;4.30;2.40;;;;;;;;;;5010425;28;20076;-63
2022/04/24 11:35:07;;;;;;;2.72;2.05;;;;;;;;;;5027177;28;20041;-65
2022/04/24 11:37:33;;;;;;;5.65;2.70;;;;;;;;;;5009904;28;20132;-63
2022/04/24 11:40:00;;;;;;;2.92;2.28;;;;;;;;;;5011269;28;20115;-63
2022/04/24 11:42:26;;;;;;;3.92;1.60;;;;;;;;;;5026862;28;20061;-64
2022/04/24 11:50:47;;;;;;;4.07;2.20;;;;;;;;;;5015197;28;20142;-65
2022/04/24 11:53:14;;;;;;;2.70;1.60;;;;;;;;;;5024123;28;20054;-66
2022/04/24 11:58:24;;;;;;;3.85;1.90;;;;;;;;;;5035350;28;20157;-65
2022/04/24 12:00:50;;;;;;;5.65;1.83;;;;;;;;;;5018418;28;20123;-63
2022/04/24 12:03:17;;;;;;;2.53;1.38;;;;;;;;;;5026319;28;20037;-65
2022/04/24 12:05:43;;;;;;;4.00;1.55;;;;;;;;;;5026234;28;20136;-65
2022/04/24 12:08:12;;;;;;;2.35;1.00;;;;;;;;;;5025702;28;20102;-65
2022/04/24 12:10:42;;;;;;;5.03;1.40;;;;;;;;;;5017911;28;20586;-63
2022/04/24 12:13:09;;;;;;;2.03;1.23;;;;;;;;;;5051386;28;20041;-65
2022/04/24 12:15:35;;;;;;;4.07;1.60;;;;;;;;;;5008270;28;20106;-63
2022/04/24 12:18:01;;;;;;;3.63;1.63;;;;;;;;;;5025397;28;20541;-65
2022/04/24 12:20:35;;;;;;;4.05;1.83;;;;;;;;;;5026565;28;20037;-63
2022/04/24 12:23:11;;;;;;;4.28;1.75;;;;;;;;;;5042103;28;20503;-63
2022/04/24 12:26:06;;;;;;;2.53;1.63;;;;;;;;;;5024852;28;20068;-62
2022/04/24 12:28:32;;;;;;;2.95;1.40;;;;;;;;;;5006131;28;20513;-64
2022/04/24 12:31:01;;;;;;;3.85;1.67;;;;;;;;;;5051315;28;20175;-63
2022/04/24 12:33:27;;;;;;;3.97;2.17;;;;;;;;;;5026731;28;20539;-66
2022/04/24 12:35:54;;;;;;;3.70;1.98;;;;;;;;;;5008556;28;20411;-64
2022/04/24 12:38:22;;;;;;;3.75;1.60;;;;;;;;;;5008828;28;20037;-65
2022/04/24 12:40:59;;;;;;;3.60;1.73;;;;;;;;;;5028149;28;20041;-62
2022/04/24 12:43:26;;;;;;;3.63;1.88;;;;;;;;;;5032125;28;20072;-65
2022/04/24 12:45:53;;;;;;;4.05;2.13;;;;;;;;;;5025230;28;20045;-63
2022/04/24 12:48:19;;;;;;;3.45;1.88;;;;;;;;;;5026025;28;20060;-64
2022/04/24 12:50:45;;;;;;;5.45;1.70;;;;;;;;;;5025201;28;20091;-64
2022/04/24 12:53:11;;;;;;;3.03;1.40;;;;;;;;;;5016734;28;20488;-64
2022/04/24 12:55:37;;;;;;;3.45;1.55;;;;;;;;;;5025685;28;20431;-62
2022/04/24 12:58:03;;;;;;;3.55;1.60;;;;;;;;;;5026609;28;20049;-64
2022/04/24 13:00:30;;;;;;;2.88;1.30;;;;;;;;;;5027197;28;20037;-64
2022/04/24 13:02:57;;;;;;;2.55;1.52;;;;;;;;;;5024302;28;20045;-63
2022/04/24 13:05:23;;;;;;;4.50;1.50;;;;;;;;;;5009640;28;20587;-64
2022/04/24 13:07:49;;;;;;;3.47;1.52;;;;;;;;;;5025362;28;22031;-62
2022/04/24 13:10:15;;;;;;;2.78;1.30;;;;;;;;;;5029208;28;20080;-62
2022/04/24 13:12:41;;;;;;;3.65;1.50;;;;;;;;;;5059023;28;20037;-62
2022/04/24 13:15:09;;;;;;;3.90;1.33;;;;;;;;;;5045818;28;20033;-62
2022/04/24 13:20:20;;;;;;;7.15;1.75;;;;;;;;;;5064943;28;20049;-62
2022/04/24 13:22:46;;;;;;;3.72;1.17;;;;;;;;;;5038353;28;20038;-62
2022/04/24 13:25:12;;;;;;;2.35;1.55;;;;;;;;;;5037502;28;20406;-62
2022/04/24 13:27:38;;;;;;;3.17;2.00;;;;;;;;;;5029145;28;20576;-62
2022/04/24 13:30:04;;;;;;;2.20;1.00;;;;;;;;;;5080130;28;20182;-64
2022/04/24 13:32:30;;;;;;;2.05;1.17;;;;;;;;;;5035011;28;20391;-62
2022/04/24 13:34:56;;;;;;;3.72;1.30;;;;;;;;;;5036083;28;20044;-62
2022/04/24 13:40:16;;;;;;;2.67;1.30;;;;;;;;;;5040750;28;20395;-61
2022/04/24 13:42:42;;;;;;;3.75;1.45;;;;;;;;;;5042005;28;20400;-66
2022/04/24 13:45:08;;;;;;;3.60;1.30;;;;;;;;;;5034988;28;20044;-63
2022/04/24 13:47:35;;;;;;;4.97;1.50;;;;;;;;;;5035532;28;20057;-62
2022/04/24 13:50:01;;;;;;;3.78;1.25;;;;;;;;;;5051129;28;20076;-63
2022/04/24 13:52:27;;;;;;;2.90;1.45;;;;;;;;;;5042436;28;20426;-65
2022/04/24 13:54:54;;;;;;;3.85;1.38;;;;;;;;;;5040140;28;20087;-66
2022/04/24 13:57:20;;;;;;;4.35;1.73;;;;;;;;;;5036803;28;20546;-66
2022/04/24 13:59:46;;;;;;;4.55;1.25;;;;;;;;;;5045375;28;20375;-65
2022/04/24 14:02:12;;;;;;;1.60;0.90;;;;;;;;;;5048246;28;20099;-65
2022/04/24 14:04:38;;;;;;;4.40;1.58;;;;;;;;;;5017398;28;20521;-64
2022/04/24 14:07:06;;;;;;;7.65;1.55;;;;;;;;;;5013174;28;20118;-65
2022/04/24 14:09:32;;;;;;;5.75;2.10;;;;;;;;;;5028871;28;20045;-63
2022/04/24 14:11:58;;;;;;;7.07;1.40;;;;;;;;;;5017239;28;20029;-65
2022/04/24 14:14:24;;;;;;;1.92;1.40;;;;;;;;;;5020155;28;20115;-64
2022/04/24 14:16:50;;;;;;;4.57;1.35;;;;;;;;;;5017006;28;20116;-64
2022/04/24 14:19:17;;;;;;;3.20;1.23;;;;;;;;;;5019781;28;20483;-66
2022/04/24 14:21:43;;;;;;;2.92;1.45;;;;;;;;;;5036215;28;20140;-64
2022/04/24 14:24:09;;;;;;;3.35;1.30;;;;;;;;;;5039406;28;20482;-62
2022/04/24 14:26:35;;;;;;;3.42;1.40;;;;;;;;;;5024456;28;20049;-63
2022/04/24 14:29:01;;;;;;;3.53;1.50;;;;;;;;;;5060841;28;20048;-63
2022/04/24 14:31:27;;;;;;;3.00;1.08;;;;;;;;;;5031052;28;20063;-63
2022/04/24 14:33:53;;;;;;;3.45;1.48;;;;;;;;;;5026859;28;20037;-63
2022/04/24 14:36:19;;;;;;;2.90;1.30;;;;;;;;;;5052199;28;20038;-64
2022/04/24 14:38:46;;;;;;;2.22;1.10;;;;;;;;;;5027578;28;20111;-65
2022/04/24 14:41:12;;;;;;;2.17;0.93;;;;;;;;;;5014101;28;20114;-65
2022/04/24 14:43:38;;;;;;;3.78;0.93;;;;;;;;;;5053296;28;20041;-64
2022/04/24 14:57:11;;;;;;;3.80;1.27;;;;;;;;;;5029637;28;20050;-63
2022/04/24 14:59:37;;;;;;;3.08;1.20;;;;;;;;;;5029681;28;20385;-65
2022/04/24 15:02:03;;;;;;;3.10;1.27;;;;;;;;;;5011942;28;20085;-64
2022/04/24 15:04:30;;;;;;;3.08;1.23;;;;;;;;;;5029522;28;20384;-63
2022/04/24 15:06:56;;;;;;;3.55;1.27;;;;;;;;;;5037156;28;20056;-63